createdAt,value
2018-06-12T00:00:35.398Z,17.86
2018-06-12T00:01:35.396Z,17.80
2018-06-12T00:02:35.397Z,17.86
2018-06-12T00:03:35.398Z,17.82
2018-06-12T00:04:35.619Z,17.76
2018-06-12T00:05:35.406Z,17.82
2018-06-12T00:06:35.416Z,17.76
2018-06-12T00:07:35.616Z,17.82
2018-06-12T00:08:35.412Z,17.79
2018-06-12T00:09:35.416Z,17.79
2018-06-12T00:10:35.441Z,17.83
2018-06-12T00:11:35.420Z,17.82
2018-06-12T00:12:35.430Z,17.79
2018-06-12T00:13:35.436Z,17.74
2018-06-12T00:14:35.441Z,17.78
2018-06-12T00:15:35.428Z,17.71
2018-06-12T00:16:35.446Z,17.74
2018-06-12T00:17:35.450Z,17.78
2018-06-12T00:18:35.645Z,17.65
2018-06-12T00:19:35.460Z,17.64
2018-06-12T00:20:35.452Z,17.68
2018-06-12T00:21:35.454Z,17.56
2018-06-12T00:22:35.448Z,17.63
2018-06-12T00:23:35.454Z,17.60
2018-06-12T00:24:35.450Z,17.68
2018-06-12T00:25:35.471Z,17.56
2018-06-12T00:26:35.455Z,17.63
2018-06-12T00:27:35.462Z,17.70
2018-06-12T00:28:35.678Z,17.60
2018-06-12T00:29:35.463Z,17.52
2018-06-12T00:30:35.667Z,17.67
2018-06-12T00:31:35.679Z,17.51
2018-06-12T00:32:35.685Z,17.59
2018-06-12T00:33:35.474Z,17.57
2018-06-12T00:34:35.696Z,17.51
2018-06-12T00:35:35.496Z,17.54
2018-06-12T00:36:35.503Z,17.48
2018-06-12T00:37:35.490Z,17.51
2018-06-12T00:38:35.694Z,17.52
2018-06-12T00:39:35.500Z,17.52
2018-06-12T00:40:35.500Z,17.44
2018-06-12T00:41:35.492Z,17.41
2018-06-12T00:42:35.509Z,17.34
2018-06-12T00:43:35.519Z,17.45
2018-06-12T00:44:35.500Z,17.45
2018-06-12T00:45:35.518Z,17.41
2018-06-12T00:46:35.509Z,17.41
2018-06-12T00:47:35.521Z,17.38
2018-06-12T00:48:35.533Z,17.36
2018-06-12T00:49:35.507Z,17.31
2018-06-12T00:50:35.509Z,17.34
2018-06-12T00:51:35.509Z,17.29
2018-06-12T00:52:35.513Z,17.26
2018-06-12T00:53:35.530Z,17.33
2018-06-12T00:54:35.530Z,17.26
2018-06-12T00:55:35.519Z,17.29
2018-06-12T00:56:35.531Z,17.24
2018-06-12T00:57:35.531Z,17.22
2018-06-12T00:58:35.726Z,17.27
2018-06-12T00:59:35.728Z,17.27
2018-06-12T01:00:35.531Z,17.23
2018-06-12T01:01:35.734Z,17.20
2018-06-12T01:02:35.748Z,17.20
2018-06-12T01:03:35.541Z,17.22
2018-06-12T01:04:35.739Z,17.26
2018-06-12T01:05:35.555Z,17.22
2018-06-12T01:06:35.570Z,17.23
2018-06-12T01:07:35.556Z,17.16
2018-06-12T01:08:35.544Z,17.29
2018-06-12T01:09:35.559Z,17.22
2018-06-12T01:10:35.550Z,17.20
2018-06-12T01:11:35.552Z,17.15
2018-06-12T01:12:35.553Z,17.22
2018-06-12T01:13:35.567Z,17.20
2018-06-12T01:14:35.569Z,17.22
2018-06-12T01:15:35.570Z,17.19
2018-06-12T01:16:35.561Z,17.14
2018-06-12T01:17:35.564Z,17.12
2018-06-12T01:18:35.768Z,17.15
2018-06-12T01:19:35.770Z,17.08
2018-06-12T01:20:35.783Z,17.08
2018-06-12T01:21:35.574Z,17.08
2018-06-12T01:22:35.586Z,17.11
2018-06-12T01:23:35.607Z,17.12
2018-06-12T01:24:35.589Z,17.01
2018-06-12T01:25:35.607Z,17.08
2018-06-12T01:26:35.595Z,16.96
2018-06-12T01:27:35.789Z,17.08
2018-06-12T01:28:35.590Z,17.14
2018-06-12T01:29:35.600Z,17.11
2018-06-12T01:30:35.592Z,17.02
2018-06-12T01:31:35.610Z,17.02
2018-06-12T01:32:35.800Z,16.93
2018-06-12T01:33:35.598Z,16.99
2018-06-12T01:34:35.614Z,17.01
2018-06-12T01:35:35.618Z,16.94
2018-06-12T01:36:35.808Z,16.97
2018-06-12T01:37:35.610Z,16.93
2018-06-12T01:38:35.813Z,16.91
2018-06-12T01:39:35.611Z,16.87
2018-06-12T01:40:35.640Z,16.87
2018-06-12T01:41:35.616Z,16.94
2018-06-12T01:42:35.846Z,16.86
2018-06-12T01:43:35.622Z,16.96
2018-06-12T01:44:35.630Z,16.87
2018-06-12T01:45:35.625Z,17.02
2018-06-12T01:46:35.629Z,17.02
2018-06-12T01:47:35.833Z,16.96
2018-06-12T01:48:35.632Z,17.02
2018-06-12T01:49:35.836Z,16.99
2018-06-12T01:50:35.639Z,16.99
2018-06-12T01:51:35.650Z,16.94
2018-06-12T01:52:35.846Z,16.94
2018-06-12T01:53:35.649Z,17.08
2018-06-12T01:54:35.659Z,16.94
2018-06-12T01:55:35.851Z,17.02
2018-06-12T01:56:35.651Z,16.96
2018-06-12T01:57:35.864Z,16.91
2018-06-12T01:58:35.655Z,16.86
2018-06-12T01:59:35.861Z,16.84
2018-06-12T02:00:35.672Z,16.81
2018-06-12T02:01:35.687Z,16.78
2018-06-12T02:02:35.665Z,16.75
2018-06-12T02:03:35.678Z,16.81
2018-06-12T02:04:35.872Z,16.76
2018-06-12T02:05:35.887Z,16.74
2018-06-12T02:06:35.877Z,16.76
2018-06-12T02:07:35.684Z,16.74
2018-06-12T02:08:35.686Z,16.76
2018-06-12T02:09:35.695Z,16.71
2018-06-12T02:10:35.692Z,16.72
2018-06-12T02:11:35.681Z,16.79
2018-06-12T02:12:35.714Z,16.68
2018-06-12T02:13:35.686Z,16.66
2018-06-12T02:14:35.716Z,16.71
2018-06-12T02:15:35.691Z,16.65
2018-06-12T02:16:35.895Z,16.65
2018-06-12T02:17:35.709Z,16.61
2018-06-12T02:18:35.696Z,16.61
2018-06-12T02:19:35.918Z,16.58
2018-06-12T02:20:35.913Z,16.53
2018-06-12T02:21:35.706Z,16.54
2018-06-12T02:22:35.707Z,16.49
2018-06-12T02:23:35.707Z,16.39
2018-06-12T02:24:35.707Z,16.41
2018-06-12T02:25:35.710Z,16.47
2018-06-12T02:26:35.916Z,16.43
2018-06-12T02:27:35.929Z,16.39
2018-06-12T02:28:35.715Z,16.43
2018-06-12T02:29:35.728Z,16.35
2018-06-12T02:30:35.717Z,16.36
2018-06-12T02:31:35.922Z,16.41
2018-06-12T02:32:35.734Z,16.43
2018-06-12T02:33:35.737Z,16.41
2018-06-12T02:34:35.771Z,16.36
2018-06-12T02:35:35.727Z,16.38
2018-06-12T02:36:35.742Z,16.41
2018-06-12T02:37:35.732Z,16.38
2018-06-12T02:38:35.739Z,16.38
2018-06-12T02:39:35.948Z,16.36
2018-06-12T02:40:35.745Z,16.35
2018-06-12T02:41:35.745Z,16.35
2018-06-12T02:42:35.749Z,16.36
2018-06-12T02:43:35.958Z,16.32
2018-06-12T02:44:35.780Z,16.43
2018-06-12T02:45:35.956Z,16.36
2018-06-12T02:46:35.958Z,16.36
2018-06-12T02:47:35.748Z,16.29
2018-06-12T02:48:35.746Z,16.36
2018-06-12T02:49:35.750Z,16.32
2018-06-12T02:50:35.761Z,16.32
2018-06-12T02:51:35.766Z,16.29
2018-06-12T02:52:35.755Z,16.33
2018-06-12T02:53:35.766Z,16.31
2018-06-12T02:54:35.781Z,16.32
2018-06-12T02:55:35.774Z,16.20
2018-06-12T02:56:35.770Z,16.26
2018-06-12T02:57:35.763Z,16.16
2018-06-12T02:58:35.775Z,16.28
2018-06-12T02:59:35.790Z,16.20
2018-06-12T03:00:35.970Z,16.20
2018-06-12T03:01:35.778Z,16.21
2018-06-12T03:02:35.781Z,16.17
2018-06-12T03:03:36.002Z,16.16
2018-06-12T03:04:35.781Z,16.20
2018-06-12T03:05:35.774Z,16.23
2018-06-12T03:06:35.775Z,16.21
2018-06-12T03:07:35.979Z,16.23
2018-06-12T03:08:35.794Z,16.20
2018-06-12T03:09:35.796Z,16.21
2018-06-12T03:10:35.782Z,16.23
2018-06-12T03:11:35.783Z,16.17
2018-06-12T03:12:35.813Z,16.12
2018-06-12T03:13:35.988Z,16.17
2018-06-12T03:14:35.799Z,16.20
2018-06-12T03:15:35.789Z,16.13
2018-06-12T03:16:35.802Z,16.17
2018-06-12T03:17:35.803Z,16.13
2018-06-12T03:18:35.802Z,16.16
2018-06-12T03:19:35.809Z,16.21
2018-06-12T03:20:35.999Z,16.16
2018-06-12T03:21:35.796Z,16.16
2018-06-12T03:22:36.008Z,16.17
2018-06-12T03:23:35.803Z,16.17
2018-06-12T03:24:35.797Z,16.16
2018-06-12T03:25:35.811Z,16.15
2018-06-12T03:26:35.802Z,16.21
2018-06-12T03:27:35.800Z,16.23
2018-06-12T03:28:35.802Z,16.29
2018-06-12T03:29:35.806Z,16.16
2018-06-12T03:30:35.832Z,16.28
2018-06-12T03:31:35.821Z,16.17
2018-06-12T03:32:35.821Z,16.17
2018-06-12T03:33:36.016Z,16.15
2018-06-12T03:34:35.811Z,16.29
2018-06-12T03:35:35.825Z,16.29
2018-06-12T03:36:35.816Z,16.29
2018-06-12T03:37:35.828Z,16.21
2018-06-12T03:38:35.829Z,16.28
2018-06-12T03:39:36.027Z,16.16
2018-06-12T03:40:35.824Z,16.24
2018-06-12T03:41:36.026Z,16.15
2018-06-12T03:42:35.834Z,16.21
2018-06-12T03:43:35.826Z,16.20
2018-06-12T03:44:35.826Z,16.20
2018-06-12T03:45:35.842Z,16.21
2018-06-12T03:46:35.841Z,16.17
2018-06-12T03:47:36.035Z,16.17
2018-06-12T03:48:35.837Z,16.23
2018-06-12T03:49:35.847Z,16.21
2018-06-12T03:50:35.834Z,16.15
2018-06-12T03:51:35.851Z,16.20
2018-06-12T03:52:35.841Z,16.09
2018-06-12T03:53:36.044Z,16.17
2018-06-12T03:54:35.841Z,16.13
2018-06-12T03:55:35.858Z,16.12
2018-06-12T03:56:35.859Z,16.15
2018-06-12T03:57:35.921Z,16.23
2018-06-12T03:58:35.848Z,16.21
2018-06-12T03:59:35.852Z,16.26
2018-06-12T04:00:35.851Z,16.17
2018-06-12T04:01:35.887Z,16.21
2018-06-12T04:02:35.858Z,16.17
2018-06-12T04:03:35.857Z,16.17
2018-06-12T04:04:35.866Z,16.15
2018-06-12T04:05:35.868Z,16.09
2018-06-12T04:06:35.858Z,16.21
2018-06-12T04:07:35.871Z,16.12
2018-06-12T04:08:35.872Z,16.21
2018-06-12T04:09:35.868Z,16.21
2018-06-12T04:10:36.071Z,16.20
2018-06-12T04:11:35.871Z,16.20
2018-06-12T04:12:36.088Z,16.17
2018-06-12T04:13:35.871Z,16.20
2018-06-12T04:14:35.882Z,16.23
2018-06-12T04:15:35.885Z,16.38
2018-06-12T04:16:35.877Z,16.33
2018-06-12T04:17:35.878Z,16.26
2018-06-12T04:18:36.081Z,16.28
2018-06-12T04:19:35.879Z,16.33
2018-06-12T04:20:35.896Z,16.41
2018-06-12T04:21:35.885Z,16.24
2018-06-12T04:22:36.085Z,16.24
2018-06-12T04:23:35.885Z,16.35
2018-06-12T04:24:36.101Z,16.36
2018-06-12T04:25:36.094Z,16.33
2018-06-12T04:26:35.892Z,16.31
2018-06-12T04:27:35.926Z,16.33
2018-06-12T04:28:36.103Z,16.38
2018-06-12T04:29:36.105Z,16.23
2018-06-12T04:30:35.923Z,16.35
2018-06-12T04:31:35.926Z,16.36
2018-06-12T04:32:36.135Z,16.36
2018-06-12T04:33:35.921Z,16.39
2018-06-12T04:34:35.908Z,16.23
2018-06-12T04:35:36.123Z,16.31
2018-06-12T04:36:35.911Z,16.32
2018-06-12T04:37:35.917Z,16.31
2018-06-12T04:38:36.119Z,16.21
2018-06-12T04:39:35.937Z,16.21
2018-06-12T04:40:35.933Z,16.23
2018-06-12T04:41:35.929Z,16.36
2018-06-12T04:42:35.922Z,16.31
2018-06-12T04:43:36.143Z,16.33
2018-06-12T04:44:35.936Z,16.36
2018-06-12T04:45:35.963Z,16.31
2018-06-12T04:46:35.944Z,16.31
2018-06-12T04:47:35.941Z,16.35
2018-06-12T04:48:35.932Z,16.32
2018-06-12T04:49:35.944Z,16.35
2018-06-12T04:50:35.936Z,16.28
2018-06-12T04:51:36.141Z,16.35
2018-06-12T04:52:35.942Z,16.46
2018-06-12T04:53:35.945Z,16.31
2018-06-12T04:54:36.022Z,16.36
2018-06-12T04:55:35.960Z,16.46
2018-06-12T04:56:35.952Z,16.43
2018-06-12T04:57:35.962Z,16.43
2018-06-12T04:58:36.154Z,16.47
2018-06-12T04:59:36.157Z,16.50
2018-06-12T05:00:35.957Z,16.53
2018-06-12T05:01:35.962Z,16.56
2018-06-12T05:02:35.960Z,16.56
2018-06-12T05:03:36.186Z,16.49
2018-06-12T05:04:36.170Z,16.49
2018-06-12T05:05:36.191Z,16.46
2018-06-12T05:06:35.973Z,16.50
2018-06-12T05:07:35.987Z,16.38
2018-06-12T05:08:35.987Z,16.47
2018-06-12T05:09:35.988Z,16.36
2018-06-12T05:10:36.039Z,16.31
2018-06-12T05:11:36.014Z,16.33
2018-06-12T05:12:35.987Z,16.33
2018-06-12T05:13:35.991Z,16.36
2018-06-12T05:14:36.001Z,16.36
2018-06-12T05:15:36.021Z,16.32
2018-06-12T05:16:36.005Z,16.32
2018-06-12T05:17:36.004Z,16.32
2018-06-12T05:18:36.199Z,16.31
2018-06-12T05:19:36.010Z,16.31
2018-06-12T05:20:36.033Z,16.29
2018-06-12T05:21:36.014Z,16.26
2018-06-12T05:22:36.006Z,16.31
2018-06-12T05:23:36.209Z,16.29
2018-06-12T05:24:36.012Z,16.32
2018-06-12T05:25:36.045Z,16.32
2018-06-12T05:26:36.218Z,16.43
2018-06-12T05:27:36.014Z,16.24
2018-06-12T05:28:36.044Z,16.31
2018-06-12T05:29:36.019Z,16.38
2018-06-12T05:30:36.026Z,16.33
2018-06-12T05:31:36.035Z,16.29
2018-06-12T05:32:36.036Z,16.32
2018-06-12T05:33:36.029Z,16.35
2018-06-12T05:34:36.031Z,16.36
2018-06-12T05:35:36.033Z,16.42
2018-06-12T05:36:36.239Z,16.41
2018-06-12T05:37:36.049Z,16.39
2018-06-12T05:38:36.245Z,16.42
2018-06-12T05:39:36.041Z,16.43
2018-06-12T05:40:36.044Z,16.41
2018-06-12T05:41:36.059Z,16.43
2018-06-12T05:42:36.051Z,16.38
2018-06-12T05:43:36.052Z,16.38
2018-06-12T05:44:36.261Z,16.46
2018-06-12T05:45:36.070Z,16.49
2018-06-12T05:46:36.263Z,16.46
2018-06-12T05:47:36.064Z,16.47
2018-06-12T05:48:36.277Z,16.42
2018-06-12T05:49:36.077Z,16.51
2018-06-12T05:50:36.070Z,16.54
2018-06-12T05:51:36.074Z,16.50
2018-06-12T05:52:36.077Z,16.43
2018-06-12T05:53:36.286Z,16.53
2018-06-12T05:54:36.089Z,16.50
2018-06-12T05:55:36.287Z,16.49
2018-06-12T05:56:36.088Z,16.39
2018-06-12T05:57:36.101Z,16.38
2018-06-12T05:58:36.089Z,16.46
2018-06-12T05:59:36.096Z,16.46
2018-06-12T06:00:36.095Z,16.39
2018-06-12T06:01:36.100Z,16.51
2018-06-12T06:02:36.103Z,16.39
2018-06-12T06:03:36.105Z,16.36
2018-06-12T06:04:36.122Z,16.38
2018-06-12T06:05:36.118Z,16.36
2018-06-12T06:06:36.120Z,16.38
2018-06-12T06:07:36.318Z,16.39
2018-06-12T06:08:36.318Z,16.38
2018-06-12T06:09:36.119Z,16.39
2018-06-12T06:10:36.129Z,16.42
2018-06-12T06:11:36.124Z,16.42
2018-06-12T06:12:36.339Z,16.43
2018-06-12T06:13:36.346Z,16.46
2018-06-12T06:14:36.131Z,16.42
2018-06-12T06:15:36.145Z,16.47
2018-06-12T06:16:36.339Z,16.39
2018-06-12T06:17:36.364Z,16.57
2018-06-12T06:18:36.143Z,16.53
2018-06-12T06:19:36.142Z,16.54
2018-06-12T06:20:36.361Z,16.56
2018-06-12T06:21:36.160Z,16.46
2018-06-12T06:22:36.228Z,16.53
2018-06-12T06:23:36.153Z,16.57
2018-06-12T06:24:36.174Z,16.54
2018-06-12T06:25:36.363Z,16.46
2018-06-12T06:26:36.382Z,16.50
2018-06-12T06:27:36.165Z,16.41
2018-06-12T06:28:36.176Z,16.35
2018-06-12T06:29:36.173Z,16.32
2018-06-12T06:30:36.172Z,16.32
2018-06-12T06:31:36.378Z,16.32
2018-06-12T06:32:36.405Z,16.33
2018-06-12T06:33:36.393Z,16.36
2018-06-12T06:34:36.181Z,16.38
2018-06-12T06:35:36.183Z,16.43
2018-06-12T06:36:36.199Z,16.38
2018-06-12T06:37:36.191Z,16.49
2018-06-12T06:38:36.190Z,16.49
2018-06-12T06:39:36.193Z,16.51
2018-06-12T06:40:36.195Z,16.65
2018-06-12T06:41:36.403Z,16.57
2018-06-12T06:42:36.200Z,16.58
2018-06-12T06:43:36.214Z,16.66
2018-06-12T06:44:36.206Z,16.65
2018-06-12T06:45:36.231Z,16.61
2018-06-12T06:46:36.211Z,16.60
2018-06-12T06:47:36.220Z,16.47
2018-06-12T06:48:36.422Z,16.43
2018-06-12T06:49:36.217Z,16.43
2018-06-12T06:50:36.433Z,16.49
2018-06-12T06:51:36.233Z,16.41
2018-06-12T06:52:36.424Z,16.49
2018-06-12T06:53:36.265Z,16.41
2018-06-12T06:54:36.434Z,16.53
2018-06-12T06:55:36.232Z,16.46
2018-06-12T06:56:36.252Z,16.57
2018-06-12T06:57:36.254Z,16.57
2018-06-12T06:58:36.439Z,16.53
2018-06-12T06:59:36.451Z,16.56
2018-06-12T07:00:36.444Z,16.50
2018-06-12T07:01:36.255Z,16.50
2018-06-12T07:02:36.448Z,16.50
2018-06-12T07:03:36.248Z,16.57
2018-06-12T07:04:36.257Z,16.65
2018-06-12T07:05:36.249Z,16.68
2018-06-12T07:06:36.252Z,16.71
2018-06-12T07:07:36.457Z,16.69
2018-06-12T07:08:36.271Z,16.75
2018-06-12T07:09:36.273Z,16.74
2018-06-12T07:10:36.279Z,16.71
2018-06-12T07:11:36.277Z,16.81
2018-06-12T07:12:36.279Z,16.74
2018-06-12T07:13:36.486Z,16.76
2018-06-12T07:14:36.482Z,16.76
2018-06-12T07:15:36.473Z,16.74
2018-06-12T07:16:36.280Z,16.84
2018-06-12T07:17:36.501Z,16.83
2018-06-12T07:18:36.276Z,16.89
2018-06-12T07:19:36.280Z,16.83
2018-06-12T07:20:36.486Z,16.84
2018-06-12T07:21:36.490Z,16.87
2018-06-12T07:22:36.500Z,16.91
2018-06-12T07:23:36.288Z,16.84
2018-06-12T07:24:36.290Z,16.90
2018-06-12T07:25:36.296Z,16.86
2018-06-12T07:26:36.294Z,16.91
2018-06-12T07:27:36.295Z,16.94
2018-06-12T07:28:36.311Z,16.86
2018-06-12T07:29:36.325Z,16.97
2018-06-12T07:30:36.307Z,16.94
2018-06-12T07:31:36.307Z,16.89
2018-06-12T07:32:36.311Z,16.87
2018-06-12T07:33:36.327Z,16.96
2018-06-12T07:34:36.341Z,16.84
2018-06-12T07:35:36.326Z,16.84
2018-06-12T07:36:36.540Z,16.86
2018-06-12T07:37:36.387Z,16.94
2018-06-12T07:38:36.545Z,17.01
2018-06-12T07:39:36.342Z,16.86
2018-06-12T07:40:36.330Z,16.99
2018-06-12T07:41:36.363Z,17.05
2018-06-12T07:42:36.351Z,17.01
2018-06-12T07:43:36.379Z,16.96
2018-06-12T07:44:36.340Z,16.99
2018-06-12T07:45:36.352Z,16.99
2018-06-12T07:46:36.560Z,17.04
2018-06-12T07:47:36.572Z,16.96
2018-06-12T07:48:36.365Z,16.99
2018-06-12T07:49:36.353Z,16.97
2018-06-12T07:50:36.367Z,16.99
2018-06-12T07:51:36.361Z,16.99
2018-06-12T07:52:36.375Z,17.11
2018-06-12T07:53:36.363Z,17.09
2018-06-12T07:54:36.565Z,17.05
2018-06-12T07:55:36.580Z,16.93
2018-06-12T07:56:36.369Z,16.94
2018-06-12T07:57:36.387Z,16.87
2018-06-12T07:58:36.384Z,16.94
2018-06-12T07:59:36.379Z,16.96
2018-06-12T08:00:36.597Z,16.94
2018-06-12T08:01:36.394Z,16.86
2018-06-12T08:02:36.395Z,16.89
2018-06-12T08:03:36.403Z,17.02
2018-06-12T08:04:36.402Z,17.04
2018-06-12T08:05:36.401Z,16.97
2018-06-12T08:06:36.619Z,17.12
2018-06-12T08:07:36.394Z,17.15
2018-06-12T08:08:36.616Z,17.23
2018-06-12T08:09:36.412Z,17.15
2018-06-12T08:10:36.432Z,17.19
2018-06-12T08:11:36.608Z,17.23
2018-06-12T08:12:36.435Z,17.24
2018-06-12T08:13:36.416Z,17.29
2018-06-12T08:14:36.639Z,17.31
2018-06-12T08:15:36.447Z,17.29
2018-06-12T08:16:36.651Z,17.31
2018-06-12T08:17:36.425Z,17.31
2018-06-12T08:18:36.486Z,17.44
2018-06-12T08:19:36.429Z,17.59
2018-06-12T08:20:36.429Z,17.49
2018-06-12T08:21:36.446Z,17.54
2018-06-12T08:22:36.446Z,17.65
2018-06-12T08:23:36.456Z,17.70
2018-06-12T08:24:36.657Z,17.74
2018-06-12T08:25:36.462Z,17.82
2018-06-12T08:26:36.659Z,17.98
2018-06-12T08:27:36.454Z,18.13
2018-06-12T08:28:36.449Z,18.29
2018-06-12T08:29:36.709Z,18.37
2018-06-12T08:30:36.472Z,18.52
2018-06-12T08:31:36.467Z,18.34
2018-06-12T08:32:36.458Z,18.29
2018-06-12T08:33:36.665Z,18.37
2018-06-12T08:34:36.477Z,18.44
2018-06-12T08:35:36.540Z,18.59
2018-06-12T08:36:36.472Z,18.63
2018-06-12T08:37:36.484Z,18.62
2018-06-12T08:38:36.475Z,18.58
2018-06-12T08:39:36.678Z,18.49
2018-06-12T08:40:36.510Z,18.26
2018-06-12T08:41:36.496Z,18.28
2018-06-12T08:42:36.488Z,18.13
2018-06-12T08:43:36.497Z,18.13
2018-06-12T08:44:36.490Z,18.16
2018-06-12T08:45:36.494Z,17.97
2018-06-12T08:46:36.697Z,17.97
2018-06-12T08:47:36.503Z,18.03
2018-06-12T08:48:36.704Z,17.95
2018-06-12T08:49:36.509Z,17.97
2018-06-12T08:50:36.514Z,17.97
2018-06-12T08:51:36.711Z,17.98
2018-06-12T08:52:36.513Z,17.98
2018-06-12T08:53:36.515Z,18.01
2018-06-12T08:54:36.720Z,17.92
2018-06-12T08:55:36.723Z,18.00
2018-06-12T08:56:36.526Z,18.15
2018-06-12T08:57:36.527Z,18.10
2018-06-12T08:58:36.536Z,18.16
2018-06-12T08:59:36.543Z,18.10
2018-06-12T09:00:36.546Z,18.22
2018-06-12T09:01:36.537Z,18.26
2018-06-12T09:02:36.541Z,18.37
2018-06-12T09:03:36.543Z,18.23
2018-06-12T09:04:36.556Z,18.28
2018-06-12T09:05:36.751Z,18.26
2018-06-12T09:06:36.550Z,18.26
2018-06-12T09:07:36.569Z,18.37
2018-06-12T09:08:36.560Z,18.35
2018-06-12T09:09:36.559Z,18.35
2018-06-12T09:10:36.579Z,18.40
2018-06-12T09:11:36.564Z,18.35
2018-06-12T09:12:36.600Z,18.37
2018-06-12T09:13:36.582Z,18.38
2018-06-12T09:14:36.584Z,18.34
2018-06-12T09:15:36.592Z,18.28
2018-06-12T09:16:36.795Z,18.07
2018-06-12T09:17:36.585Z,18.11
2018-06-12T09:18:36.588Z,18.01
2018-06-12T09:19:36.603Z,17.95
2018-06-12T09:20:36.791Z,18.00
2018-06-12T09:21:36.603Z,18.05
2018-06-12T09:22:36.607Z,18.00
2018-06-12T09:23:36.609Z,17.95
2018-06-12T09:24:36.603Z,17.97
2018-06-12T09:25:36.604Z,18.00
2018-06-12T09:26:36.619Z,17.94
2018-06-12T09:27:36.619Z,17.92
2018-06-12T09:28:36.611Z,18.01
2018-06-12T09:29:36.644Z,18.00
2018-06-12T09:30:36.616Z,17.98
2018-06-12T09:31:36.622Z,17.89
2018-06-12T09:32:36.843Z,17.98
2018-06-12T09:33:36.625Z,18.03
2018-06-12T09:34:36.639Z,18.11
2018-06-12T09:35:36.657Z,18.03
2018-06-12T09:36:36.645Z,18.16
2018-06-12T09:37:36.836Z,18.11
2018-06-12T09:38:36.651Z,18.05
2018-06-12T09:39:36.663Z,18.11
2018-06-12T09:40:36.651Z,18.18
2018-06-12T09:41:36.675Z,18.10
2018-06-12T09:42:36.670Z,18.18
2018-06-12T09:43:36.679Z,18.15
2018-06-12T09:44:36.653Z,18.10
2018-06-12T09:45:36.680Z,18.08
2018-06-12T09:46:36.670Z,18.10
2018-06-12T09:47:36.686Z,18.08
2018-06-12T09:48:36.664Z,18.19
2018-06-12T09:49:36.680Z,18.15
2018-06-12T09:50:36.880Z,18.20
2018-06-12T09:51:36.680Z,18.26
2018-06-12T09:52:36.686Z,18.22
2018-06-12T09:53:36.891Z,18.23
2018-06-12T09:54:36.880Z,18.25
2018-06-12T09:55:36.883Z,18.35
2018-06-12T09:56:36.685Z,18.22
2018-06-12T09:57:36.688Z,18.31
2018-06-12T09:58:36.696Z,18.40
2018-06-12T09:59:36.901Z,18.34
2018-06-12T10:00:36.900Z,18.41
2018-06-12T10:01:36.709Z,18.35
2018-06-12T10:02:36.712Z,18.41
2018-06-12T10:03:36.904Z,18.49
2018-06-12T10:04:36.705Z,18.50
2018-06-12T10:05:36.707Z,18.49
2018-06-12T10:06:36.711Z,18.50
2018-06-12T10:07:36.730Z,18.62
2018-06-12T10:08:36.718Z,18.58
2018-06-12T10:09:36.720Z,18.55
2018-06-12T10:10:36.735Z,18.62
2018-06-12T10:11:36.740Z,18.63
2018-06-12T10:12:36.731Z,18.73
2018-06-12T10:13:36.744Z,18.78
2018-06-12T10:14:36.733Z,18.83
2018-06-12T10:15:36.947Z,18.78
2018-06-12T10:16:36.742Z,18.92
2018-06-12T10:17:36.960Z,18.89
2018-06-12T10:18:36.747Z,18.95
2018-06-12T10:19:36.762Z,18.99
2018-06-12T10:20:36.961Z,18.99
2018-06-12T10:21:36.768Z,18.96
2018-06-12T10:22:36.774Z,18.99
2018-06-12T10:23:36.978Z,18.95
2018-06-12T10:24:36.781Z,18.93
2018-06-12T10:25:36.786Z,18.95
2018-06-12T10:26:36.789Z,18.93
2018-06-12T10:27:36.994Z,19.02
2018-06-12T10:28:36.987Z,19.12
2018-06-12T10:29:36.785Z,19.09
2018-06-12T10:30:36.801Z,18.99
2018-06-12T10:31:36.807Z,19.07
2018-06-12T10:32:36.822Z,19.00
2018-06-12T10:33:36.799Z,19.04
2018-06-12T10:34:36.802Z,19.12
2018-06-12T10:35:36.807Z,19.00
2018-06-12T10:36:36.812Z,19.08
2018-06-12T10:37:37.029Z,19.12
2018-06-12T10:38:37.029Z,19.11
2018-06-12T10:39:37.037Z,18.99
2018-06-12T10:40:36.839Z,18.92
2018-06-12T10:41:36.854Z,18.92
2018-06-12T10:42:36.830Z,18.96
2018-06-12T10:43:36.901Z,18.89
2018-06-12T10:44:36.838Z,18.88
2018-06-12T10:45:36.855Z,18.81
2018-06-12T10:46:36.843Z,18.86
2018-06-12T10:47:36.860Z,18.75
2018-06-12T10:48:36.863Z,18.73
2018-06-12T10:49:36.856Z,18.75
2018-06-12T10:50:37.084Z,18.77
2018-06-12T10:51:36.895Z,18.78
2018-06-12T10:52:36.864Z,18.84
2018-06-12T10:53:36.871Z,18.71
2018-06-12T10:54:36.871Z,18.62
2018-06-12T10:55:36.909Z,18.65
2018-06-12T10:56:37.084Z,18.71
2018-06-12T10:57:37.085Z,18.60
2018-06-12T10:58:36.886Z,18.60
2018-06-12T10:59:37.102Z,18.65
2018-06-12T11:00:36.914Z,18.60
2018-06-12T11:01:36.906Z,18.62
2018-06-12T11:02:36.917Z,18.60
2018-06-12T11:03:36.981Z,18.58
2018-06-12T11:04:36.922Z,18.62
2018-06-12T11:05:36.925Z,18.65
2018-06-12T11:06:36.916Z,18.59
2018-06-12T11:07:36.944Z,18.59
2018-06-12T11:08:36.944Z,18.55
2018-06-12T11:09:37.124Z,18.52
2018-06-12T11:10:36.922Z,18.47
2018-06-12T11:11:37.133Z,18.52
2018-06-12T11:12:36.939Z,18.49
2018-06-12T11:13:37.151Z,18.56
2018-06-12T11:14:36.944Z,18.49
2018-06-12T11:15:36.940Z,18.50
2018-06-12T11:16:37.144Z,18.52
2018-06-12T11:17:37.146Z,18.53
2018-06-12T11:18:36.964Z,18.58
2018-06-12T11:19:36.951Z,18.47
2018-06-12T11:20:36.964Z,18.53
2018-06-12T11:21:36.968Z,18.60
2018-06-12T11:22:36.961Z,18.59
2018-06-12T11:23:36.959Z,18.58
2018-06-12T11:24:36.961Z,18.58
2018-06-12T11:25:36.966Z,18.59
2018-06-12T11:26:36.966Z,18.53
2018-06-12T11:27:36.969Z,18.62
2018-06-12T11:28:36.973Z,18.58
2018-06-12T11:29:36.978Z,18.62
2018-06-12T11:30:37.003Z,18.56
2018-06-12T11:31:36.979Z,18.56
2018-06-12T11:32:36.997Z,18.59
2018-06-12T11:33:36.987Z,18.59
2018-06-12T11:34:36.988Z,18.53
2018-06-12T11:35:36.990Z,18.60
2018-06-12T11:36:37.001Z,18.60
2018-06-12T11:37:37.010Z,18.62
2018-06-12T11:38:37.009Z,18.65
2018-06-12T11:39:37.001Z,18.65
2018-06-12T11:40:37.003Z,18.62
2018-06-12T11:41:37.005Z,18.63
2018-06-12T11:42:37.020Z,18.83
2018-06-12T11:43:37.012Z,18.78
2018-06-12T11:44:37.013Z,18.80
2018-06-12T11:45:37.018Z,18.77
2018-06-12T11:46:37.031Z,18.80
2018-06-12T11:47:37.236Z,18.89
2018-06-12T11:48:37.023Z,18.86
2018-06-12T11:49:37.042Z,18.90
2018-06-12T11:50:37.027Z,18.92
2018-06-12T11:51:37.234Z,18.95
2018-06-12T11:52:37.042Z,18.89
2018-06-12T11:53:37.036Z,18.98
2018-06-12T11:54:37.038Z,18.93
2018-06-12T11:55:37.256Z,19.07
2018-06-12T11:56:37.048Z,19.11
2018-06-12T11:57:37.060Z,19.12
2018-06-12T11:58:37.049Z,19.09
2018-06-12T11:59:37.255Z,19.02
2018-06-12T12:00:37.259Z,19.16
2018-06-12T12:01:37.274Z,19.19
2018-06-12T12:02:37.058Z,19.29
2018-06-12T12:03:37.078Z,19.22
2018-06-12T12:04:37.066Z,19.16
2018-06-12T12:05:37.069Z,19.12
2018-06-12T12:06:37.067Z,19.14
2018-06-12T12:07:37.288Z,19.02
2018-06-12T12:08:37.073Z,19.00
2018-06-12T12:09:37.090Z,18.88
2018-06-12T12:10:37.078Z,18.93
2018-06-12T12:11:37.081Z,18.96
2018-06-12T12:12:37.087Z,18.98
2018-06-12T12:13:37.301Z,19.08
2018-06-12T12:14:37.089Z,19.09
2018-06-12T12:15:37.092Z,19.07
2018-06-12T12:16:37.104Z,19.12
2018-06-12T12:17:37.110Z,19.12
2018-06-12T12:18:37.115Z,19.07
2018-06-12T12:19:37.121Z,19.11
2018-06-12T12:20:37.103Z,19.09
2018-06-12T12:21:37.118Z,19.02
2018-06-12T12:22:37.119Z,18.98
2018-06-12T12:23:37.121Z,18.98
2018-06-12T12:24:37.112Z,18.90
2018-06-12T12:25:37.147Z,18.90
2018-06-12T12:26:37.120Z,18.84
2018-06-12T12:27:37.136Z,18.81
2018-06-12T12:28:37.402Z,18.80
2018-06-12T12:29:37.126Z,18.78
2018-06-12T12:30:37.127Z,18.84
2018-06-12T12:31:37.333Z,18.73
2018-06-12T12:32:37.144Z,18.81
2018-06-12T12:33:37.135Z,18.65
2018-06-12T12:34:37.354Z,18.65
2018-06-12T12:35:37.152Z,18.59
2018-06-12T12:36:37.154Z,18.60
2018-06-12T12:37:37.144Z,18.63
2018-06-12T12:38:37.158Z,18.58
2018-06-12T12:39:37.351Z,18.70
2018-06-12T12:40:37.164Z,18.59
2018-06-12T12:41:37.368Z,18.55
2018-06-12T12:42:37.357Z,18.58
2018-06-12T12:43:37.203Z,18.56
2018-06-12T12:44:37.172Z,18.55
2018-06-12T12:45:37.175Z,18.53
2018-06-12T12:46:37.167Z,18.58
2018-06-12T12:47:37.169Z,18.52
2018-06-12T12:48:37.170Z,18.52
2018-06-12T12:49:37.175Z,18.52
2018-06-12T12:50:37.175Z,18.53
2018-06-12T12:51:37.217Z,18.50
2018-06-12T12:52:37.193Z,18.50